sensor_id;sensor_type;location;lat;lon;timestamp;pressure;altitude;pressure_sealevel;temperature;humidity
61086;BME280;46967;48.876;2.136;2022-11-25T00:01:19;100827.91;;;10.29;98.49
61086;BME280;46967;48.876;2.136;2022-11-25T00:03:45;100820.03;;;10.33;97.89
61086;BME280;46967;48.876;2.136;2022-11-25T00:06:20;100824.25;;;10.38;98.18
61086;BME280;46967;48.876;2.136;2022-11-25T00:08:47;100826.19;;;10.29;98.20
61086;BME280;46967;48.876;2.136;2022-11-25T00:11:14;100823.69;;;10.26;98.60
61086;BME280;46967;48.876;2.136;2022-11-25T00:13:41;100830.50;;;10.29;98.45
61086;BME280;46967;48.876;2.136;2022-11-25T00:16:09;100842.53;;;10.33;98.26
61086;BME280;46967;48.876;2.136;2022-11-25T00:18:35;100843.34;;;10.35;98.00
61086;BME280;46967;48.876;2.136;2022-11-25T00:21:05;100845.06;;;10.36;97.59
61086;BME280;46967;48.876;2.136;2022-11-25T00:23:31;100840.94;;;10.27;98.22
61086;BME280;46967;48.876;2.136;2022-11-25T00:25:56;100834.09;;;10.25;98.27
61086;BME280;46967;48.876;2.136;2022-11-25T00:28:22;100838.50;;;10.21;97.95
61086;BME280;46967;48.876;2.136;2022-11-25T00:30:47;100836.88;;;10.19;98.09
61086;BME280;46967;48.876;2.136;2022-11-25T00:33:12;100849.78;;;10.20;97.60
61086;BME280;46967;48.876;2.136;2022-11-25T00:35:38;100851.00;;;10.07;97.95
61086;BME280;46967;48.876;2.136;2022-11-25T00:38:03;100840.50;;;10.11;97.58
61086;BME280;46967;48.876;2.136;2022-11-25T00:40:28;100853.59;;;10.07;97.32
61086;BME280;46967;48.876;2.136;2022-11-25T00:42:54;100853.59;;;10.07;97.39
61086;BME280;46967;48.876;2.136;2022-11-25T00:45:45;100857.94;;;10.06;97.05
61086;BME280;46967;48.876;2.136;2022-11-25T00:48:10;100859.84;;;10.00;97.03
61086;BME280;46967;48.876;2.136;2022-11-25T00:50:36;100864.31;;;9.94;97.27
61086;BME280;46967;48.876;2.136;2022-11-25T00:53:01;100867.97;;;9.86;97.91
61086;BME280;46967;48.876;2.136;2022-11-25T00:55:26;100869.72;;;9.85;97.77
61086;BME280;46967;48.876;2.136;2022-11-25T00:58:11;100867.06;;;9.88;97.32
61086;BME280;46967;48.876;2.136;2022-11-25T01:00:37;100859.41;;;9.84;97.30
61086;BME280;46967;48.876;2.136;2022-11-25T01:03:02;100866.19;;;9.88;96.97
61086;BME280;46967;48.876;2.136;2022-11-25T01:05:27;100873.34;;;9.78;97.16
61086;BME280;46967;48.876;2.136;2022-11-25T01:07:53;100868.09;;;9.81;96.91
61086;BME280;46967;48.876;2.136;2022-11-25T01:10:18;100877.81;;;9.73;97.25
61086;BME280;46967;48.876;2.136;2022-11-25T01:12:46;100885.59;;;9.73;97.27
61086;BME280;46967;48.876;2.136;2022-11-25T01:15:11;100879.75;;;9.65;97.88
61086;BME280;46967;48.876;2.136;2022-11-25T01:17:36;100880.66;;;9.62;98.34
61086;BME280;46967;48.876;2.136;2022-11-25T01:20:02;100896.97;;;9.66;98.23
61086;BME280;46967;48.876;2.136;2022-11-25T01:22:27;100898.88;;;9.59;98.48
61086;BME280;46967;48.876;2.136;2022-11-25T01:24:53;100904.72;;;9.67;97.76
61086;BME280;46967;48.876;2.136;2022-11-25T01:27:18;100903.28;;;9.55;98.15
61086;BME280;46967;48.876;2.136;2022-11-25T01:29:43;100908.28;;;9.63;97.77
61086;BME280;46967;48.876;2.136;2022-11-25T01:32:09;100915.22;;;9.61;98.11
61086;BME280;46967;48.876;2.136;2022-11-25T01:34:34;100919.63;;;9.57;98.30
61086;BME280;46967;48.876;2.136;2022-11-25T01:37:01;100925.69;;;9.58;98.57
61086;BME280;46967;48.876;2.136;2022-11-25T01:39:27;100935.19;;;9.57;98.25
61086;BME280;46967;48.876;2.136;2022-11-25T01:41:52;100934.50;;;9.49;98.68
61086;BME280;46967;48.876;2.136;2022-11-25T01:44:22;100942.34;;;9.46;99.05
61086;BME280;46967;48.876;2.136;2022-11-25T01:46:57;100943.03;;;9.54;98.91
61086;BME280;46967;48.876;2.136;2022-11-25T01:52:20;100942.22;;;9.52;99.00
61086;BME280;46967;48.876;2.136;2022-11-25T01:57:16;100954.44;;;9.47;99.03
61086;BME280;46967;48.876;2.136;2022-11-25T01:59:49;100960.53;;;9.45;99.13
61086;BME280;46967;48.876;2.136;2022-11-25T02:02:16;100960.56;;;9.43;99.20
61086;BME280;46967;48.876;2.136;2022-11-25T02:04:43;100958.81;;;9.43;98.80
61086;BME280;46967;48.876;2.136;2022-11-25T02:07:18;100963.22;;;9.40;99.08
61086;BME280;46967;48.876;2.136;2022-11-25T02:09:46;100960.59;;;9.41;98.97
61086;BME280;46967;48.876;2.136;2022-11-25T02:12:12;100969.25;;;9.40;98.96
61086;BME280;46967;48.876;2.136;2022-11-25T02:14:39;100971.97;;;9.36;99.04
61086;BME280;46967;48.876;2.136;2022-11-25T02:17:04;100978.75;;;9.40;98.78
61086;BME280;46967;48.876;2.136;2022-11-25T02:22:24;100974.53;;;9.36;98.50
61086;BME280;46967;48.876;2.136;2022-11-25T02:24:55;100980.69;;;9.30;98.46
61086;BME280;46967;48.876;2.136;2022-11-25T02:27:22;100985.81;;;9.33;98.48
61086;BME280;46967;48.876;2.136;2022-11-25T02:29:48;100987.84;;;9.19;98.89
61086;BME280;46967;48.876;2.136;2022-11-25T02:32:14;100991.28;;;9.19;98.87
61086;BME280;46967;48.876;2.136;2022-11-25T02:34:46;100995.75;;;9.13;99.12
61086;BME280;46967;48.876;2.136;2022-11-25T02:37:13;100999.22;;;9.10;99.58
61086;BME280;46967;48.876;2.136;2022-11-25T02:39:39;101000.84;;;9.16;99.22
61086;BME280;46967;48.876;2.136;2022-11-25T02:42:05;101007.69;;;9.20;98.58
61086;BME280;46967;48.876;2.136;2022-11-25T02:44:31;101004.22;;;9.19;97.87
61086;BME280;46967;48.876;2.136;2022-11-25T02:46:57;101008.59;;;9.17;97.95
61086;BME280;46967;48.876;2.136;2022-11-25T02:49:22;101005.19;;;9.15;98.19
61086;BME280;46967;48.876;2.136;2022-11-25T02:51:47;101014.59;;;9.19;97.76
61086;BME280;46967;48.876;2.136;2022-11-25T02:54:14;101014.75;;;9.12;98.47
61086;BME280;46967;48.876;2.136;2022-11-25T02:56:39;101017.22;;;9.18;97.81
61086;BME280;46967;48.876;2.136;2022-11-25T02:59:05;101026.78;;;9.14;97.68
61086;BME280;46967;48.876;2.136;2022-11-25T03:01:31;101029.53;;;9.06;98.26
61086;BME280;46967;48.876;2.136;2022-11-25T03:03:58;101027.72;;;9.10;97.90
61086;BME280;46967;48.876;2.136;2022-11-25T03:06:23;101027.03;;;9.02;97.81
61086;BME280;46967;48.876;2.136;2022-11-25T03:08:48;101025.34;;;9.01;97.97
61086;BME280;46967;48.876;2.136;2022-11-25T03:11:14;101027.97;;;8.99;97.88
61086;BME280;46967;48.876;2.136;2022-11-25T03:13:39;101035.66;;;9.02;98.11
61086;BME280;46967;48.876;2.136;2022-11-25T03:16:05;101042.63;;;8.99;98.08
61086;BME280;46967;48.876;2.136;2022-11-25T03:18:31;101046.97;;;8.97;97.80
61086;BME280;46967;48.876;2.136;2022-11-25T03:20:56;101046.78;;;9.07;97.73
61086;BME280;46967;48.876;2.136;2022-11-25T03:23:22;101057.28;;;9.00;97.89
61086;BME280;46967;48.876;2.136;2022-11-25T03:25:48;101063.31;;;8.99;97.96
61086;BME280;46967;48.876;2.136;2022-11-25T03:28:13;101070.31;;;8.95;97.93
61086;BME280;46967;48.876;2.136;2022-11-25T03:30:39;101063.47;;;8.91;98.27
61086;BME280;46967;48.876;2.136;2022-11-25T03:33:05;101072.91;;;8.94;98.06
61086;BME280;46967;48.876;2.136;2022-11-25T03:35:30;101080.69;;;8.94;97.78
61086;BME280;46967;48.876;2.136;2022-11-25T03:37:55;101086.69;;;8.96;97.77
61086;BME280;46967;48.876;2.136;2022-11-25T03:40:21;101089.31;;;8.93;98.01
61086;BME280;46967;48.876;2.136;2022-11-25T03:42:46;101094.50;;;8.93;98.02
61086;BME280;46967;48.876;2.136;2022-11-25T03:45:13;101094.44;;;8.96;97.76
61086;BME280;46967;48.876;2.136;2022-11-25T03:47:40;101096.94;;;9.02;97.17
61086;BME280;46967;48.876;2.136;2022-11-25T03:50:06;101101.28;;;9.00;97.51
61086;BME280;46967;48.876;2.136;2022-11-25T03:52:32;101100.47;;;8.98;97.70
61086;BME280;46967;48.876;2.136;2022-11-25T03:54:57;101108.25;;;8.96;97.80
61086;BME280;46967;48.876;2.136;2022-11-25T03:57:23;101109.06;;;9.00;97.78
61086;BME280;46967;48.876;2.136;2022-11-25T03:59:48;101105.66;;;8.98;97.66
61086;BME280;46967;48.876;2.136;2022-11-25T04:02:13;101104.75;;;8.99;98.05
61086;BME280;46967;48.876;2.136;2022-11-25T04:04:39;101113.41;;;8.98;98.02
61086;BME280;46967;48.876;2.136;2022-11-25T04:07:04;101110.84;;;8.96;98.33
61086;BME280;46967;48.876;2.136;2022-11-25T04:09:30;101115.16;;;8.96;98.39
61086;BME280;46967;48.876;2.136;2022-11-25T04:11:55;101119.50;;;8.95;98.61
61086;BME280;46967;48.876;2.136;2022-11-25T04:14:39;101110.97;;;8.90;98.74
61086;BME280;46967;48.876;2.136;2022-11-25T04:17:04;101116.03;;;8.96;98.59
61086;BME280;46967;48.876;2.136;2022-11-25T04:19:30;101117.78;;;8.93;98.57
61086;BME280;46967;48.876;2.136;2022-11-25T04:21:55;101125.56;;;8.93;98.70
61086;BME280;46967;48.876;2.136;2022-11-25T04:24:24;101123.81;;;8.95;98.58
61086;BME280;46967;48.876;2.136;2022-11-25T04:26:49;101123.00;;;8.91;98.95
61086;BME280;46967;48.876;2.136;2022-11-25T04:29:15;101114.47;;;8.86;99.41
61086;BME280;46967;48.876;2.136;2022-11-25T04:31:40;101117.09;;;8.84;99.13
61086;BME280;46967;48.876;2.136;2022-11-25T04:34:05;101122.16;;;8.91;98.66
61086;BME280;46967;48.876;2.136;2022-11-25T04:36:31;101132.56;;;8.87;98.93
61086;BME280;46967;48.876;2.136;2022-11-25T04:38:57;101132.75;;;8.77;99.58
61086;BME280;46967;48.876;2.136;2022-11-25T04:41:22;101140.53;;;8.75;99.40
61086;BME280;46967;48.876;2.136;2022-11-25T04:43:47;101151.72;;;8.77;99.30
61086;BME280;46967;48.876;2.136;2022-11-25T04:46:16;101153.41;;;8.80;99.29
61086;BME280;46967;48.876;2.136;2022-11-25T04:48:42;101161.16;;;8.80;98.80
61086;BME280;46967;48.876;2.136;2022-11-25T04:51:08;101158.50;;;8.84;98.13
61086;BME280;46967;48.876;2.136;2022-11-25T04:53:33;101167.09;;;8.85;98.06
61086;BME280;46967;48.876;2.136;2022-11-25T04:55:58;101175.84;;;8.79;98.40
61086;BME280;46967;48.876;2.136;2022-11-25T04:58:24;101181.78;;;8.84;98.03
61086;BME280;46967;48.876;2.136;2022-11-25T05:01:08;101184.53;;;8.75;98.48
61086;BME280;46967;48.876;2.136;2022-11-25T05:03:33;101193.16;;;8.76;98.30
61086;BME280;46967;48.876;2.136;2022-11-25T05:05:58;101190.50;;;8.80;98.05
61086;BME280;46967;48.876;2.136;2022-11-25T05:08:24;101193.03;;;8.83;97.17
61086;BME280;46967;48.876;2.136;2022-11-25T05:10:49;101192.22;;;8.80;97.58
61086;BME280;46967;48.876;2.136;2022-11-25T05:13:14;101193.13;;;8.79;97.31
61086;BME280;46967;48.876;2.136;2022-11-25T05:15:40;101202.56;;;8.80;97.48
61086;BME280;46967;48.876;2.136;2022-11-25T05:18:05;101201.03;;;8.69;97.96
61086;BME280;46967;48.876;2.136;2022-11-25T05:20:30;101207.94;;;8.66;98.04
61086;BME280;46967;48.876;2.136;2022-11-25T05:22:56;101205.44;;;8.63;98.39
61086;BME280;46967;48.876;2.136;2022-11-25T05:25:21;101216.66;;;8.62;98.36
61086;BME280;46967;48.876;2.136;2022-11-25T05:27:48;101219.19;;;8.65;98.15
61086;BME280;46967;48.876;2.136;2022-11-25T05:30:14;101223.47;;;8.66;97.99
61086;BME280;46967;48.876;2.136;2022-11-25T05:32:39;101230.50;;;8.58;98.34
61086;BME280;46967;48.876;2.136;2022-11-25T05:35:05;101231.44;;;8.54;99.04
61086;BME280;46967;48.876;2.136;2022-11-25T05:37:30;101235.78;;;8.50;99.43
61086;BME280;46967;48.876;2.136;2022-11-25T05:39:55;101235.72;;;8.55;98.88
61086;BME280;46967;48.876;2.136;2022-11-25T05:42:21;101239.28;;;8.49;99.13
61086;BME280;46967;48.876;2.136;2022-11-25T05:44:46;101248.75;;;8.48;99.11
61086;BME280;46967;48.876;2.136;2022-11-25T05:47:11;101242.63;;;8.54;98.46
61086;BME280;46967;48.876;2.136;2022-11-25T05:49:37;101257.31;;;8.54;98.81
61086;BME280;46967;48.876;2.136;2022-11-25T05:52:02;101247.84;;;8.51;98.78
61086;BME280;46967;48.876;2.136;2022-11-25T05:54:27;101254.84;;;8.44;99.08
61086;BME280;46967;48.876;2.136;2022-11-25T05:56:53;101253.09;;;8.46;98.59
61086;BME280;46967;48.876;2.136;2022-11-25T05:59:18;101246.22;;;8.45;98.53
61086;BME280;46967;48.876;2.136;2022-11-25T06:01:43;101242.81;;;8.39;98.83
61086;BME280;46967;48.876;2.136;2022-11-25T06:04:09;101254.84;;;8.44;98.12
61086;BME280;46967;48.876;2.136;2022-11-25T06:06:35;101255.75;;;8.37;98.30
61086;BME280;46967;48.876;2.136;2022-11-25T06:09:01;101265.31;;;8.33;98.69
61086;BME280;46967;48.876;2.136;2022-11-25T06:11:26;101267.94;;;8.29;98.58
61086;BME280;46967;48.876;2.136;2022-11-25T06:13:51;101260.16;;;8.30;98.85
61086;BME280;46967;48.876;2.136;2022-11-25T06:16:20;101270.50;;;8.32;97.99
61086;BME280;46967;48.876;2.136;2022-11-25T06:18:46;101274.94;;;8.21;98.69
61086;BME280;46967;48.876;2.136;2022-11-25T06:21:12;101277.53;;;8.22;98.48
61086;BME280;46967;48.876;2.136;2022-11-25T06:23:38;101283.53;;;8.24;98.81
61086;BME280;46967;48.876;2.136;2022-11-25T06:26:09;101286.91;;;8.28;98.34
61086;BME280;46967;48.876;2.136;2022-11-25T06:28:36;101285.16;;;8.33;97.86
61086;BME280;46967;48.876;2.136;2022-11-25T06:31:10;101298.88;;;8.37;97.27
61086;BME280;46967;48.876;2.136;2022-11-25T06:33:36;101304.16;;;8.27;97.73
61086;BME280;46967;48.876;2.136;2022-11-25T06:36:06;101304.97;;;8.32;97.68
61086;BME280;46967;48.876;2.136;2022-11-25T06:38:32;101311.09;;;8.25;97.85
61086;BME280;46967;48.876;2.136;2022-11-25T06:41:02;101311.88;;;8.30;97.59
61086;BME280;46967;48.876;2.136;2022-11-25T06:43:29;101312.84;;;8.23;97.80
61086;BME280;46967;48.876;2.136;2022-11-25T06:46:00;101315.47;;;8.22;97.70
61086;BME280;46967;48.876;2.136;2022-11-25T06:48:27;101324.00;;;8.27;97.54
61086;BME280;46967;48.876;2.136;2022-11-25T06:50:57;101321.47;;;8.24;97.67
61086;BME280;46967;48.876;2.136;2022-11-25T06:53:24;101326.66;;;8.21;97.61
61086;BME280;46967;48.876;2.136;2022-11-25T06:56:11;101327.63;;;8.10;98.13
61086;BME280;46967;48.876;2.136;2022-11-25T06:58:38;101321.50;;;8.19;97.61
61086;BME280;46967;48.876;2.136;2022-11-25T07:03:36;101320.69;;;8.17;97.24
61086;BME280;46967;48.876;2.136;2022-11-25T07:06:01;101329.31;;;8.14;97.29
61086;BME280;46967;48.876;2.136;2022-11-25T07:08:27;101327.59;;;8.13;97.46
61086;BME280;46967;48.876;2.136;2022-11-25T07:10:53;101336.28;;;8.09;97.50
61086;BME280;46967;48.876;2.136;2022-11-25T07:13:19;101337.09;;;8.13;97.11
61086;BME280;46967;48.876;2.136;2022-11-25T07:15:45;101346.59;;;8.12;97.30
61086;BME280;46967;48.876;2.136;2022-11-25T07:18:10;101345.63;;;8.20;96.95
61086;BME280;46967;48.876;2.136;2022-11-25T07:20:36;101355.97;;;8.21;96.72
61086;BME280;46967;48.876;2.136;2022-11-25T07:23:02;101352.59;;;8.14;96.93
61086;BME280;46967;48.876;2.136;2022-11-25T07:25:27;101355.09;;;8.22;96.85
61086;BME280;46967;48.876;2.136;2022-11-25T07:27:53;101352.56;;;8.18;96.98
61086;BME280;46967;48.876;2.136;2022-11-25T07:30:18;101362.94;;;8.14;97.18
61086;BME280;46967;48.876;2.136;2022-11-25T07:32:43;101357.75;;;8.14;97.42
61086;BME280;46967;48.876;2.136;2022-11-25T07:35:09;101362.91;;;8.16;97.42
61086;BME280;46967;48.876;2.136;2022-11-25T07:37:34;101359.50;;;8.12;97.58
61086;BME280;46967;48.876;2.136;2022-11-25T07:39:59;101368.06;;;8.18;97.64
61086;BME280;46967;48.876;2.136;2022-11-25T07:42:25;101367.25;;;8.14;97.67
61086;BME280;46967;48.876;2.136;2022-11-25T07:44:50;101362.97;;;8.11;98.01
61086;BME280;46967;48.876;2.136;2022-11-25T07:47:16;101372.41;;;8.17;97.83
61086;BME280;46967;48.876;2.136;2022-11-25T07:49:41;101379.31;;;8.13;97.55
61086;BME280;46967;48.876;2.136;2022-11-25T07:52:08;101387.84;;;8.25;97.30
61086;BME280;46967;48.876;2.136;2022-11-25T07:54:33;101398.22;;;8.20;97.50
61086;BME280;46967;48.876;2.136;2022-11-25T07:56:59;101393.94;;;8.18;97.31
61086;BME280;46967;48.876;2.136;2022-11-25T07:59:24;101404.25;;;8.21;97.21
61086;BME280;46967;48.876;2.136;2022-11-25T08:01:53;101409.44;;;8.18;97.88
61086;BME280;46967;48.876;2.136;2022-11-25T08:04:20;101422.34;;;8.19;97.89
61086;BME280;46967;48.876;2.136;2022-11-25T08:06:47;101424.91;;;8.22;97.03
61086;BME280;46967;48.876;2.136;2022-11-25T08:09:15;101435.25;;;8.22;96.86
61086;BME280;46967;48.876;2.136;2022-11-25T08:11:43;101447.25;;;8.28;97.29
61086;BME280;46967;48.876;2.136;2022-11-25T08:14:09;101447.34;;;8.22;97.18
61086;BME280;46967;48.876;2.136;2022-11-25T08:16:34;101461.91;;;8.30;97.02
61086;BME280;46967;48.876;2.136;2022-11-25T08:19:01;101455.84;;;8.33;96.67
61086;BME280;46967;48.876;2.136;2022-11-25T08:21:27;101458.41;;;8.34;96.35
61086;BME280;46967;48.876;2.136;2022-11-25T08:23:53;101476.50;;;8.36;95.73
61086;BME280;46967;48.876;2.136;2022-11-25T08:26:27;101473.91;;;8.38;96.09
61086;BME280;46967;48.876;2.136;2022-11-25T08:28:57;101480.75;;;8.42;95.53
61086;BME280;46967;48.876;2.136;2022-11-25T08:31:26;101485.91;;;8.42;95.75
61086;BME280;46967;48.876;2.136;2022-11-25T08:33:53;101485.84;;;8.51;94.60
61086;BME280;46967;48.876;2.136;2022-11-25T08:36:19;101503.16;;;8.46;95.20
61086;BME280;46967;48.876;2.136;2022-11-25T08:38:47;101497.09;;;8.48;95.10
61086;BME280;46967;48.876;2.136;2022-11-25T08:41:22;101505.69;;;8.52;95.30
61086;BME280;46967;48.876;2.136;2022-11-25T08:43:47;101512.53;;;8.55;95.14
61086;BME280;46967;48.876;2.136;2022-11-25T08:46:16;101510.88;;;8.52;95.16
61086;BME280;46967;48.876;2.136;2022-11-25T08:48:42;101524.59;;;8.60;95.50
61086;BME280;46967;48.876;2.136;2022-11-25T08:51:19;101522.78;;;8.67;94.50
61086;BME280;46967;48.876;2.136;2022-11-25T08:53:46;101525.34;;;8.70;94.33
61086;BME280;46967;48.876;2.136;2022-11-25T08:56:12;101531.34;;;8.74;94.47
61086;BME280;46967;48.876;2.136;2022-11-25T08:58:38;101533.00;;;8.81;94.30
61086;BME280;46967;48.876;2.136;2022-11-25T09:01:04;101536.31;;;8.92;94.34
61086;BME280;46967;48.876;2.136;2022-11-25T09:03:39;101542.25;;;9.02;93.59
61086;BME280;46967;48.876;2.136;2022-11-25T09:06:06;101545.75;;;8.99;93.93
61086;BME280;46967;48.876;2.136;2022-11-25T09:08:32;101557.75;;;9.03;94.04
61086;BME280;46967;48.876;2.136;2022-11-25T09:10:58;101555.06;;;9.14;93.62
61086;BME280;46967;48.876;2.136;2022-11-25T09:13:24;101560.03;;;9.31;91.67
61086;BME280;46967;48.876;2.136;2022-11-25T09:15:49;101561.78;;;9.29;92.24
61086;BME280;46967;48.876;2.136;2022-11-25T09:18:14;101571.31;;;9.27;91.33
61086;BME280;46967;48.876;2.136;2022-11-25T09:20:43;101583.31;;;9.36;90.12
61086;BME280;46967;48.876;2.136;2022-11-25T09:23:08;101579.03;;;9.32;91.09
61086;BME280;46967;48.876;2.136;2022-11-25T09:25:34;101579.03;;;9.32;91.39
61086;BME280;46967;48.876;2.136;2022-11-25T09:28:00;101581.50;;;9.41;90.16
61086;BME280;46967;48.876;2.136;2022-11-25T09:30:26;101584.19;;;9.33;90.33
61086;BME280;46967;48.876;2.136;2022-11-25T09:32:52;101591.09;;;9.33;90.78
61086;BME280;46967;48.876;2.136;2022-11-25T09:35:18;101581.63;;;9.32;91.15
61086;BME280;46967;48.876;2.136;2022-11-25T09:37:44;101598.03;;;9.29;91.25
61086;BME280;46967;48.876;2.136;2022-11-25T09:40:43;101611.78;;;9.36;90.74
61086;BME280;46967;48.876;2.136;2022-11-25T09:49:13;101631.78;;;9.23;90.96
61086;BME280;46967;48.876;2.136;2022-11-25T09:54:26;101634.09;;;9.48;89.57
61086;BME280;46967;48.876;2.136;2022-11-25T09:57:17;101633.16;;;9.56;89.38
61086;BME280;46967;48.876;2.136;2022-11-25T10:00:04;101634.69;;;9.70;89.40
61086;BME280;46967;48.876;2.136;2022-11-25T10:05:32;101633.78;;;9.75;87.23
61086;BME280;46967;48.876;2.136;2022-11-25T10:08:06;101652.22;;;9.48;88.33
61086;BME280;46967;48.876;2.136;2022-11-25T10:10:42;101664.16;;;9.59;88.29
61086;BME280;46967;48.876;2.136;2022-11-25T10:13:16;101664.91;;;9.72;88.30
61086;BME280;46967;48.876;2.136;2022-11-25T10:15:46;101663.88;;;9.86;87.16
61086;BME280;46967;48.876;2.136;2022-11-25T10:18:18;101668.91;;;9.96;86.95
61086;BME280;46967;48.876;2.136;2022-11-25T10:20:48;101677.31;;;10.14;86.86
61086;BME280;46967;48.876;2.136;2022-11-25T10:23:27;101680.00;;;10.06;86.35
61086;BME280;46967;48.876;2.136;2022-11-25T10:26:02;101673.97;;;10.06;86.44
61086;BME280;46967;48.876;2.136;2022-11-25T10:28:34;101676.63;;;10.03;85.94
61086;BME280;46967;48.876;2.136;2022-11-25T10:31:16;101678.94;;;10.21;85.81
61086;BME280;46967;48.876;2.136;2022-11-25T10:33:45;101686.63;;;10.27;85.48
61086;BME280;46967;48.876;2.136;2022-11-25T10:36:19;101684.78;;;10.37;85.45
61086;BME280;46967;48.876;2.136;2022-11-25T10:38:56;101682.09;;;10.43;84.87
61086;BME280;46967;48.876;2.136;2022-11-25T10:41:26;101686.41;;;10.46;84.99
61086;BME280;46967;48.876;2.136;2022-11-25T10:43:52;101689.50;;;10.69;84.97
61086;BME280;46967;48.876;2.136;2022-11-25T10:51:49;101707.47;;;10.82;82.90
61086;BME280;46967;48.876;2.136;2022-11-25T10:54:27;101695.72;;;11.11;83.11
61086;BME280;46967;48.876;2.136;2022-11-25T10:59:35;101713.81;;;11.17;82.12
61086;BME280;46967;48.876;2.136;2022-11-25T11:02:15;101713.66;;;11.24;81.03
61086;BME280;46967;48.876;2.136;2022-11-25T11:07:32;101711.16;;;11.20;81.60
61086;BME280;46967;48.876;2.136;2022-11-25T11:12:50;101718.53;;;11.41;81.44
61086;BME280;46967;48.876;2.136;2022-11-25T11:15:43;101715.84;;;11.46;80.95
61086;BME280;46967;48.876;2.136;2022-11-25T11:18:20;101722.50;;;11.61;79.64
61086;BME280;46967;48.876;2.136;2022-11-25T11:20:49;101723.25;;;11.68;79.82
61086;BME280;46967;48.876;2.136;2022-11-25T11:23:16;101729.47;;;11.59;79.73
61086;BME280;46967;48.876;2.136;2022-11-25T11:25:54;101732.25;;;11.50;79.54
61086;BME280;46967;48.876;2.136;2022-11-25T11:33:47;101734.56;;;11.65;79.78
61086;BME280;46967;48.876;2.136;2022-11-25T11:39:32;101732.47;;;11.83;79.02
61086;BME280;46967;48.876;2.136;2022-11-25T11:47:39;101740.72;;;12.05;78.18
61086;BME280;46967;48.876;2.136;2022-11-25T11:53:12;101753.34;;;12.23;78.71
61086;BME280;46967;48.876;2.136;2022-11-25T11:58:38;101746.25;;;12.30;78.19
61086;BME280;46967;48.876;2.136;2022-11-25T12:01:35;101744.31;;;12.40;76.78
61086;BME280;46967;48.876;2.136;2022-11-25T12:09:46;101754.97;;;12.27;77.39
61086;BME280;46967;48.876;2.136;2022-11-25T12:12:17;101751.44;;;12.31;76.55
61086;BME280;46967;48.876;2.136;2022-11-25T12:14:49;101757.16;;;12.47;76.02
61086;BME280;46967;48.876;2.136;2022-11-25T12:17:34;101758.75;;;12.55;77.00
61086;BME280;46967;48.876;2.136;2022-11-25T12:20:15;101762.91;;;12.62;75.86
61086;BME280;46967;48.876;2.136;2022-11-25T12:23:10;101770.19;;;12.46;74.86
61086;BME280;46967;48.876;2.136;2022-11-25T12:25:40;101778.19;;;12.38;75.37
61086;BME280;46967;48.876;2.136;2022-11-25T12:28:11;101778.69;;;12.54;74.98
61086;BME280;46967;48.876;2.136;2022-11-25T12:34:01;101787.88;;;12.31;75.62
61086;BME280;46967;48.876;2.136;2022-11-25T12:36:41;101786.03;;;12.37;75.61
61086;BME280;46967;48.876;2.136;2022-11-25T12:39:19;101782.47;;;12.41;74.60
61086;BME280;46967;48.876;2.136;2022-11-25T12:41:55;101785.59;;;12.57;74.68
61086;BME280;46967;48.876;2.136;2022-11-25T12:46:52;101789.19;;;12.51;74.93
61086;BME280;46967;48.876;2.136;2022-11-25T12:49:22;101790.25;;;12.42;74.59
61086;BME280;46967;48.876;2.136;2022-11-25T13:08:56;101814.59;;;12.79;74.18
61086;BME280;46967;48.876;2.136;2022-11-25T13:14:38;101812.41;;;12.99;73.17
61086;BME280;46967;48.876;2.136;2022-11-25T13:17:12;101817.19;;;12.80;74.52
61086;BME280;46967;48.876;2.136;2022-11-25T13:19:39;101811.50;;;12.99;74.28
61086;BME280;46967;48.876;2.136;2022-11-25T13:24:56;101814.25;;;12.94;73.10
61086;BME280;46967;48.876;2.136;2022-11-25T13:30:21;101816.03;;;12.92;73.17
61086;BME280;46967;48.876;2.136;2022-11-25T13:32:50;101820.75;;;12.75;73.31
61086;BME280;46967;48.876;2.136;2022-11-25T13:37:50;101827.28;;;12.55;74.78
61086;BME280;46967;48.876;2.136;2022-11-25T13:42:46;101832.47;;;12.57;75.15
61086;BME280;46967;48.876;2.136;2022-11-25T13:45:34;101831.72;;;12.52;75.14
61086;BME280;46967;48.876;2.136;2022-11-25T13:48:12;101830.00;;;12.50;75.12
61086;BME280;46967;48.876;2.136;2022-11-25T13:50:40;101841.44;;;12.42;74.78
61086;BME280;46967;48.876;2.136;2022-11-25T13:53:17;101840.81;;;12.30;74.41
61086;BME280;46967;48.876;2.136;2022-11-25T13:55:45;101839.50;;;12.09;75.51
61086;BME280;46967;48.876;2.136;2022-11-25T13:58:25;101847.91;;;12.22;75.49
61086;BME280;46967;48.876;2.136;2022-11-25T14:08:41;101871.75;;;12.02;76.53
61086;BME280;46967;48.876;2.136;2022-11-25T14:14:45;101880.53;;;11.95;75.91
61086;BME280;46967;48.876;2.136;2022-11-25T14:25:55;101895.16;;;12.02;75.74
61086;BME280;46967;48.876;2.136;2022-11-25T14:28:38;101901.47;;;11.86;75.63
61086;BME280;46967;48.876;2.136;2022-11-25T14:31:09;101892.97;;;11.76;75.50
61086;BME280;46967;48.876;2.136;2022-11-25T14:33:44;101904.22;;;11.76;75.56
61086;BME280;46967;48.876;2.136;2022-11-25T14:36:14;101906.91;;;11.72;75.95
61086;BME280;46967;48.876;2.136;2022-11-25T14:38:48;101909.19;;;11.93;75.99
61086;BME280;46967;48.876;2.136;2022-11-25T14:41:25;101911.63;;;12.03;75.72
61086;BME280;46967;48.876;2.136;2022-11-25T14:43:59;101915.69;;;12.16;75.48
61086;BME280;46967;48.876;2.136;2022-11-25T14:46:26;101916.69;;;12.10;74.57
61086;BME280;46967;48.876;2.136;2022-11-25T14:49:00;101915.03;;;12.05;74.88
61086;BME280;46967;48.876;2.136;2022-11-25T14:51:32;101918.81;;;11.87;75.70
61086;BME280;46967;48.876;2.136;2022-11-25T14:53:58;101926.50;;;11.96;75.67
61086;BME280;46967;48.876;2.136;2022-11-25T14:56:34;101936.94;;;11.93;74.37
61086;BME280;46967;48.876;2.136;2022-11-25T14:59:01;101942.41;;;11.76;75.17
61086;BME280;46967;48.876;2.136;2022-11-25T15:01:31;101942.63;;;11.62;76.02
61086;BME280;46967;48.876;2.136;2022-11-25T15:06:40;101956.59;;;11.55;76.12